sensor_id;sensor_type;location;lat;lon;timestamp;pressure;altitude;pressure_sealevel;temperature;humidity
47753;BME280;2038;51.728;6.674;2023-04-08T00:00:27;101513.69;;;6.63;100.00
47753;BME280;2038;51.728;6.674;2023-04-08T00:02:54;101514.88;;;6.66;100.00
47753;BME280;2038;51.728;6.674;2023-04-08T00:05:20;101524.00;;;6.64;100.00
47753;BME280;2038;51.728;6.674;2023-04-08T00:07:46;101511.94;;;6.62;100.00
47753;BME280;2038;51.728;6.674;2023-04-08T00:10:12;101521.06;;;6.51;100.00
47753;BME280;2038;51.728;6.674;2023-04-08T00:12:39;101523.59;;;6.51;100.00
47753;BME280;2038;51.728;6.674;2023-04-08T00:15:05;101524.94;;;6.47;100.00
47753;BME280;2038;51.728;6.674;2023-04-08T00:17:32;101528.22;;;6.46;100.00
47753;BME280;2038;51.728;6.674;2023-04-08T00:19:58;101519.88;;;6.47;100.00
47753;BME280;2038;51.728;6.674;2023-04-08T00:22:25;101526.00;;;6.49;100.00
47753;BME280;2038;51.728;6.674;2023-04-08T00:24:51;101524.69;;;6.36;100.00
47753;BME280;2038;51.728;6.674;2023-04-08T00:27:17;101530.38;;;6.33;100.00
47753;BME280;2038;51.728;6.674;2023-04-08T00:29:43;101530.50;;;6.35;100.00
47753;BME280;2038;51.728;6.674;2023-04-08T00:32:10;101531.09;;;6.41;100.00
47753;BME280;2038;51.728;6.674;2023-04-08T00:34:36;101534.34;;;6.40;100.00
47753;BME280;2038;51.728;6.674;2023-04-08T00:37:03;101537.16;;;6.43;100.00
47753;BME280;2038;51.728;6.674;2023-04-08T00:39:29;101527.28;;;6.54;100.00
47753;BME280;2038;51.728;6.674;2023-04-08T00:41:56;101533.69;;;6.59;100.00
47753;BME280;2038;51.728;6.674;2023-04-08T00:44:22;101528.47;;;6.58;100.00
47753;BME280;2038;51.728;6.674;2023-04-08T00:46:48;101535.66;;;6.53;100.00
47753;BME280;2038;51.728;6.674;2023-04-08T00:49:15;101532.22;;;6.62;100.00
47753;BME280;2038;51.728;6.674;2023-04-08T00:51:42;101530.22;;;6.68;100.00
47753;BME280;2038;51.728;6.674;2023-04-08T00:54:08;101534.44;;;6.58;100.00
47753;BME280;2038;51.728;6.674;2023-04-08T00:56:35;101539.81;;;6.62;100.00
47753;BME280;2038;51.728;6.674;2023-04-08T00:59:02;101534.09;;;6.73;100.00
47753;BME280;2038;51.728;6.674;2023-04-08T01:01:50;101542.25;;;6.79;100.00
47753;BME280;2038;51.728;6.674;2023-04-08T01:07:27;101551.88;;;6.91;100.00
47753;BME280;2038;51.728;6.674;2023-04-08T01:10:22;101539.78;;;6.97;100.00
47753;BME280;2038;51.728;6.674;2023-04-08T01:12:58;101548.59;;;6.92;100.00
47753;BME280;2038;51.728;6.674;2023-04-08T01:15:27;101543.22;;;6.98;100.00
47753;BME280;2038;51.728;6.674;2023-04-08T01:17:56;101548.56;;;7.01;100.00
47753;BME280;2038;51.728;6.674;2023-04-08T01:20:25;101545.91;;;6.91;100.00
47753;BME280;2038;51.728;6.674;2023-04-08T01:23:15;101540.09;;;6.92;100.00
47753;BME280;2038;51.728;6.674;2023-04-08T01:25:53;101545.91;;;6.91;100.00
47753;BME280;2038;51.728;6.674;2023-04-08T01:28:22;101546.69;;;6.90;100.00
47753;BME280;2038;51.728;6.674;2023-04-08T01:30:52;101548.16;;;6.88;100.00
47753;BME280;2038;51.728;6.674;2023-04-08T01:33:21;101549.34;;;6.91;100.00
47753;BME280;2038;51.728;6.674;2023-04-08T01:35:51;101545.34;;;6.85;100.00
47753;BME280;2038;51.728;6.674;2023-04-08T01:38:19;101549.22;;;6.90;100.00
47753;BME280;2038;51.728;6.674;2023-04-08T01:40:49;101542.19;;;6.87;100.00
47753;BME280;2038;51.728;6.674;2023-04-08T01:43:17;101548.81;;;7.04;100.00
47753;BME280;2038;51.728;6.674;2023-04-08T01:45:45;101553.19;;;6.96;100.00
47753;BME280;2038;51.728;6.674;2023-04-08T01:48:14;101557.41;;;6.87;100.00
47753;BME280;2038;51.728;6.674;2023-04-08T01:50:42;101548.84;;;6.68;100.00
47753;BME280;2038;51.728;6.674;2023-04-08T01:53:10;101557.38;;;6.60;100.00
47753;BME280;2038;51.728;6.674;2023-04-08T01:55:39;101548.72;;;6.58;100.00
47753;BME280;2038;51.728;6.674;2023-04-08T01:58:07;101558.31;;;6.52;100.00
47753;BME280;2038;51.728;6.674;2023-04-08T02:00:39;101553.38;;;6.53;100.00
47753;BME280;2038;51.728;6.674;2023-04-08T02:03:08;101550.84;;;6.53;100.00
47753;BME280;2038;51.728;6.674;2023-04-08T02:05:38;101550.41;;;6.57;100.00
47753;BME280;2038;51.728;6.674;2023-04-08T02:08:05;101552.63;;;6.54;100.00
47753;BME280;2038;51.728;6.674;2023-04-08T02:10:31;101553.88;;;6.41;100.00
47753;BME280;2038;51.728;6.674;2023-04-08T02:12:57;101552.84;;;6.30;100.00
47753;BME280;2038;51.728;6.674;2023-04-08T02:15:26;101546.59;;;6.27;100.00
47753;BME280;2038;51.728;6.674;2023-04-08T02:18:08;101558.81;;;6.22;100.00
47753;BME280;2038;51.728;6.674;2023-04-08T02:20:46;101551.38;;;6.15;100.00
47753;BME280;2038;51.728;6.674;2023-04-08T02:23:19;101555.09;;;6.19;100.00
47753;BME280;2038;51.728;6.674;2023-04-08T02:25:49;101556.88;;;6.28;100.00
47753;BME280;2038;51.728;6.674;2023-04-08T02:28:20;101559.13;;;6.25;100.00
47753;BME280;2038;51.728;6.674;2023-04-08T02:30:51;101553.16;;;6.25;100.00
47753;BME280;2038;51.728;6.674;2023-04-08T02:33:20;101558.97;;;6.15;100.00
47753;BME280;2038;51.728;6.674;2023-04-08T02:35:49;101560.78;;;6.07;100.00
47753;BME280;2038;51.728;6.674;2023-04-08T02:38:19;101563.31;;;5.99;100.00
47753;BME280;2038;51.728;6.674;2023-04-08T02:40:48;101563.94;;;5.88;100.00
47753;BME280;2038;51.728;6.674;2023-04-08T02:43:16;101559.03;;;5.89;100.00
47753;BME280;2038;51.728;6.674;2023-04-08T02:45:43;101559.59;;;5.87;100.00
47753;BME280;2038;51.728;6.674;2023-04-08T02:48:10;101565.25;;;5.76;100.00
47753;BME280;2038;51.728;6.674;2023-04-08T02:50:36;101560.63;;;5.63;100.00
47753;BME280;2038;51.728;6.674;2023-04-08T02:53:03;101554.38;;;5.68;100.00
47753;BME280;2038;51.728;6.674;2023-04-08T02:55:29;101558.56;;;5.76;100.00
47753;BME280;2038;51.728;6.674;2023-04-08T02:57:56;101554.66;;;5.54;100.00
47753;BME280;2038;51.728;6.674;2023-04-08T03:00:22;101558.53;;;5.50;100.00
47753;BME280;2038;51.728;6.674;2023-04-08T03:02:48;101562.13;;;5.52;100.00
47753;BME280;2038;51.728;6.674;2023-04-08T03:05:14;101564.66;;;5.52;100.00
47753;BME280;2038;51.728;6.674;2023-04-08T03:07:41;101579.47;;;5.24;100.00
47753;BME280;2038;51.728;6.674;2023-04-08T03:10:08;101579.16;;;5.21;100.00
47753;BME280;2038;51.728;6.674;2023-04-08T03:12:34;101570.22;;;5.15;100.00
47753;BME280;2038;51.728;6.674;2023-04-08T03:15:01;101577.81;;;5.15;100.00
47753;BME280;2038;51.728;6.674;2023-04-08T03:17:28;101574.69;;;5.09;100.00
47753;BME280;2038;51.728;6.674;2023-04-08T03:19:57;101578.69;;;5.07;100.00
47753;BME280;2038;51.728;6.674;2023-04-08T03:22:23;101586.25;;;5.07;100.00
47753;BME280;2038;51.728;6.674;2023-04-08T03:24:49;101580.16;;;5.14;100.00
47753;BME280;2038;51.728;6.674;2023-04-08T03:27:16;101592.41;;;5.27;100.00
47753;BME280;2038;51.728;6.674;2023-04-08T03:29:42;101585.53;;;5.26;100.00
47753;BME280;2038;51.728;6.674;2023-04-08T03:32:10;101595.34;;;5.05;100.00
47753;BME280;2038;51.728;6.674;2023-04-08T03:34:36;101586.06;;;4.89;100.00
47753;BME280;2038;51.728;6.674;2023-04-08T03:37:03;101586.34;;;4.92;100.00
47753;BME280;2038;51.728;6.674;2023-04-08T03:39:29;101585.16;;;4.88;100.00
47753;BME280;2038;51.728;6.674;2023-04-08T03:41:56;101586.19;;;4.90;100.00
47753;BME280;2038;51.728;6.674;2023-04-08T03:44:24;101592.88;;;4.81;100.00
47753;BME280;2038;51.728;6.674;2023-04-08T03:46:51;101593.25;;;4.68;100.00
47753;BME280;2038;51.728;6.674;2023-04-08T03:49:17;101598.91;;;4.75;100.00
47753;BME280;2038;51.728;6.674;2023-04-08T03:51:43;101598.56;;;4.63;100.00
47753;BME280;2038;51.728;6.674;2023-04-08T03:54:09;101599.63;;;4.65;100.00
47753;BME280;2038;51.728;6.674;2023-04-08T03:56:35;101595.78;;;4.44;100.00
47753;BME280;2038;51.728;6.674;2023-04-08T03:59:02;101595.78;;;4.44;100.00
47753;BME280;2038;51.728;6.674;2023-04-08T04:01:28;101589.59;;;4.25;100.00
47753;BME280;2038;51.728;6.674;2023-04-08T04:03:57;101591.22;;;4.24;100.00
47753;BME280;2038;51.728;6.674;2023-04-08T04:06:23;101589.19;;;4.13;100.00
47753;BME280;2038;51.728;6.674;2023-04-08T04:08:53;101597.41;;;4.19;100.00
47753;BME280;2038;51.728;6.674;2023-04-08T04:11:20;101602.66;;;4.30;100.00
47753;BME280;2038;51.728;6.674;2023-04-08T04:13:47;101607.69;;;4.30;100.00
47753;BME280;2038;51.728;6.674;2023-04-08T04:16:13;101604.88;;;4.27;100.00
47753;BME280;2038;51.728;6.674;2023-04-08T04:18:47;101597.16;;;4.25;100.00
47753;BME280;2038;51.728;6.674;2023-04-08T04:21:13;101608.22;;;4.18;100.00
47753;BME280;2038;51.728;6.674;2023-04-08T04:23:40;101611.41;;;4.24;100.00
47753;BME280;2038;51.728;6.674;2023-04-08T04:26:09;101618.97;;;4.24;100.00
47753;BME280;2038;51.728;6.674;2023-04-08T04:28:36;101614.19;;;4.43;100.00
47753;BME280;2038;51.728;6.674;2023-04-08T04:31:03;101619.09;;;4.26;100.00
47753;BME280;2038;51.728;6.674;2023-04-08T04:33:30;101621.13;;;4.13;100.00
47753;BME280;2038;51.728;6.674;2023-04-08T04:35:56;101625.41;;;4.14;100.00
47753;BME280;2038;51.728;6.674;2023-04-08T04:38:22;101626.00;;;4.11;100.00
47753;BME280;2038;51.728;6.674;2023-04-08T04:40:48;101633.72;;;4.13;100.00
47753;BME280;2038;51.728;6.674;2023-04-08T04:43:13;101633.31;;;4.01;100.00
47753;BME280;2038;51.728;6.674;2023-04-08T04:45:39;101633.00;;;3.98;100.00
47753;BME280;2038;51.728;6.674;2023-04-08T04:48:06;101634.56;;;4.05;100.00
47753;BME280;2038;51.728;6.674;2023-04-08T04:50:32;101634.78;;;3.99;100.00
47753;BME280;2038;51.728;6.674;2023-04-08T04:52:58;101627.66;;;3.95;100.00
47753;BME280;2038;51.728;6.674;2023-04-08T04:55:25;101638.31;;;3.93;100.00
47753;BME280;2038;51.728;6.674;2023-04-08T04:57:51;101631.22;;;3.82;100.00
47753;BME280;2038;51.728;6.674;2023-04-08T05:00:17;101638.38;;;3.86;100.00
47753;BME280;2038;51.728;6.674;2023-04-08T05:02:43;101631.56;;;3.85;100.00
47753;BME280;2038;51.728;6.674;2023-04-08T05:05:10;101640.66;;;3.75;100.00
47753;BME280;2038;51.728;6.674;2023-04-08T05:07:37;101634.09;;;3.69;100.00
47753;BME280;2038;51.728;6.674;2023-04-08T05:10:04;101644.81;;;3.59;100.00
47753;BME280;2038;51.728;6.674;2023-04-08T05:12:30;101650.47;;;3.50;100.00
47753;BME280;2038;51.728;6.674;2023-04-08T05:15:00;101652.59;;;3.54;100.00
47753;BME280;2038;51.728;6.674;2023-04-08T05:17:26;101646.03;;;3.47;100.00
47753;BME280;2038;51.728;6.674;2023-04-08T05:19:53;101651.06;;;3.47;100.00
47753;BME280;2038;51.728;6.674;2023-04-08T05:22:19;101667.09;;;3.48;100.00
47753;BME280;2038;51.728;6.674;2023-04-08T05:24:45;101660.25;;;3.62;100.00
47753;BME280;2038;51.728;6.674;2023-04-08T05:27:11;101663.91;;;3.57;100.00
47753;BME280;2038;51.728;6.674;2023-04-08T05:29:38;101657.59;;;3.61;100.00
47753;BME280;2038;51.728;6.674;2023-04-08T05:32:04;101667.69;;;3.61;100.00
47753;BME280;2038;51.728;6.674;2023-04-08T05:34:31;101673.94;;;3.64;100.00
47753;BME280;2038;51.728;6.674;2023-04-08T05:36:57;101674.84;;;3.65;100.00
47753;BME280;2038;51.728;6.674;2023-04-08T05:39:23;101670.25;;;3.69;100.00
47753;BME280;2038;51.728;6.674;2023-04-08T05:41:49;101684.75;;;3.63;100.00
47753;BME280;2038;51.728;6.674;2023-04-08T05:44:16;101682.75;;;3.45;100.00
47753;BME280;2038;51.728;6.674;2023-04-08T05:46:42;101683.59;;;3.53;100.00
47753;BME280;2038;51.728;6.674;2023-04-08T05:49:08;101688.97;;;3.56;100.00
47753;BME280;2038;51.728;6.674;2023-04-08T05:51:34;101685.78;;;3.65;100.00
47753;BME280;2038;51.728;6.674;2023-04-08T05:54:01;101692.47;;;3.65;100.00
47753;BME280;2038;51.728;6.674;2023-04-08T05:56:27;101696.94;;;3.67;100.00
47753;BME280;2038;51.728;6.674;2023-04-08T05:58:53;101697.84;;;3.84;100.00
47753;BME280;2038;51.728;6.674;2023-04-08T06:01:20;101698.06;;;3.94;100.00
47753;BME280;2038;51.728;6.674;2023-04-08T06:03:46;101697.44;;;3.88;100.00
47753;BME280;2038;51.728;6.674;2023-04-08T06:06:12;101688.66;;;4.00;100.00
47753;BME280;2038;51.728;6.674;2023-04-08T06:08:39;101697.63;;;4.05;100.00
47753;BME280;2038;51.728;6.674;2023-04-08T06:11:05;101696.44;;;4.10;100.00
47753;BME280;2038;51.728;6.674;2023-04-08T06:13:32;101705.56;;;4.16;100.00
47753;BME280;2038;51.728;6.674;2023-04-08T06:15:58;101692.28;;;4.26;100.00
47753;BME280;2038;51.728;6.674;2023-04-08T06:18:34;101694.34;;;4.46;100.00
47753;BME280;2038;51.728;6.674;2023-04-08T06:21:00;101703.78;;;4.55;100.00
47753;BME280;2038;51.728;6.674;2023-04-08T06:23:26;101709.81;;;4.64;100.00
47753;BME280;2038;51.728;6.674;2023-04-08T06:25:52;101716.19;;;4.69;100.00
47753;BME280;2038;51.728;6.674;2023-04-08T06:28:18;101718.72;;;4.85;100.00
47753;BME280;2038;51.728;6.674;2023-04-08T06:30:44;101730.75;;;4.88;100.00
47753;BME280;2038;51.728;6.674;2023-04-08T06:33:10;101726.78;;;4.98;100.00
47753;BME280;2038;51.728;6.674;2023-04-08T06:35:36;101727.56;;;5.06;100.00
47753;BME280;2038;51.728;6.674;2023-04-08T06:38:03;101721.81;;;5.15;100.00
47753;BME280;2038;51.728;6.674;2023-04-08T06:40:30;101726.97;;;5.33;100.00
47753;BME280;2038;51.728;6.674;2023-04-08T06:43:00;101727.44;;;5.46;100.00
47753;BME280;2038;51.728;6.674;2023-04-08T06:45:26;101735.06;;;5.54;100.00
47753;BME280;2038;51.728;6.674;2023-04-08T06:47:51;101729.03;;;5.70;100.00
47753;BME280;2038;51.728;6.674;2023-04-08T06:50:17;101737.22;;;5.76;100.00
47753;BME280;2038;51.728;6.674;2023-04-08T06:52:44;101741.25;;;5.82;100.00
47753;BME280;2038;51.728;6.674;2023-04-08T06:55:10;101752.94;;;5.97;100.00
47753;BME280;2038;51.728;6.674;2023-04-08T06:57:36;101746.25;;;6.06;100.00
47753;BME280;2038;51.728;6.674;2023-04-08T07:00:02;101737.03;;;6.24;100.00
47753;BME280;2038;51.728;6.674;2023-04-08T07:02:29;101748.94;;;6.42;100.00
47753;BME280;2038;51.728;6.674;2023-04-08T07:04:55;101745.53;;;6.59;100.00
47753;BME280;2038;51.728;6.674;2023-04-08T07:07:21;101748.81;;;6.67;100.00
47753;BME280;2038;51.728;6.674;2023-04-08T07:09:49;101750.13;;;6.80;100.00
47753;BME280;2038;51.728;6.674;2023-04-08T07:12:15;101744.44;;;6.91;100.00
47753;BME280;2038;51.728;6.674;2023-04-08T07:14:41;101755.16;;;7.06;100.00
47753;BME280;2038;51.728;6.674;2023-04-08T07:17:07;101760.44;;;7.26;100.00
47753;BME280;2038;51.728;6.674;2023-04-08T07:19:33;101762.81;;;7.42;100.00
47753;BME280;2038;51.728;6.674;2023-04-08T07:22:00;101767.34;;;7.54;100.00
47753;BME280;2038;51.728;6.674;2023-04-08T07:24:27;101765.91;;;7.48;100.00
47753;BME280;2038;51.728;6.674;2023-04-08T07:26:53;101767.94;;;7.61;100.00
47753;BME280;2038;51.728;6.674;2023-04-08T07:29:21;101775.09;;;7.65;100.00
47753;BME280;2038;51.728;6.674;2023-04-08T07:31:47;101776.34;;;7.78;100.00
47753;BME280;2038;51.728;6.674;2023-04-08T07:34:14;101782.28;;;7.87;100.00
47753;BME280;2038;51.728;6.674;2023-04-08T07:36:40;101785.25;;;7.92;100.00
47753;BME280;2038;51.728;6.674;2023-04-08T07:39:06;101786.56;;;7.97;100.00
47753;BME280;2038;51.728;6.674;2023-04-08T07:41:32;101786.06;;;8.10;100.00
47753;BME280;2038;51.728;6.674;2023-04-08T07:43:58;101778.28;;;8.08;100.00
47753;BME280;2038;51.728;6.674;2023-04-08T07:46:25;101786.41;;;8.23;100.00
47753;BME280;2038;51.728;6.674;2023-04-08T07:48:51;101790.97;;;8.35;100.00
47753;BME280;2038;51.728;6.674;2023-04-08T07:51:17;101795.03;;;8.52;100.00
47753;BME280;2038;51.728;6.674;2023-04-08T07:53:43;101793.56;;;8.54;100.00
47753;BME280;2038;51.728;6.674;2023-04-08T07:56:11;101788.22;;;8.80;100.00
47753;BME280;2038;51.728;6.674;2023-04-08T07:58:39;101794.22;;;8.80;100.00
47753;BME280;2038;51.728;6.674;2023-04-08T08:01:18;101801.44;;;8.95;100.00
47753;BME280;2038;51.728;6.674;2023-04-08T08:03:47;101806.38;;;8.93;100.00
47753;BME280;2038;51.728;6.674;2023-04-08T08:06:14;101805.72;;;8.96;100.00
47753;BME280;2038;51.728;6.674;2023-04-08T08:08:41;101815.34;;;9.08;100.00
47753;BME280;2038;51.728;6.674;2023-04-08T08:11:07;101812.56;;;9.15;100.00
47753;BME280;2038;51.728;6.674;2023-04-08T08:13:34;101821.09;;;9.16;100.00
47753;BME280;2038;51.728;6.674;2023-04-08T08:16:00;101812.50;;;9.24;100.00
47753;BME280;2038;51.728;6.674;2023-04-08T08:18:26;101825.09;;;9.04;100.00
47753;BME280;2038;51.728;6.674;2023-04-08T08:20:52;101829.31;;;8.84;100.00
47753;BME280;2038;51.728;6.674;2023-04-08T08:23:18;101830.41;;;8.97;100.00
47753;BME280;2038;51.728;6.674;2023-04-08T08:25:45;101824.44;;;9.25;100.00
47753;BME280;2038;51.728;6.674;2023-04-08T08:28:11;101825.50;;;9.08;100.00
47753;BME280;2038;51.728;6.674;2023-04-08T08:30:38;101821.84;;;9.15;100.00
47753;BME280;2038;51.728;6.674;2023-04-08T08:33:04;101825.09;;;9.22;100.00
47753;BME280;2038;51.728;6.674;2023-04-08T08:35:30;101829.63;;;9.45;100.00
47753;BME280;2038;51.728;6.674;2023-04-08T08:37:56;101815.66;;;9.60;100.00
47753;BME280;2038;51.728;6.674;2023-04-08T08:40:23;101814.06;;;9.81;100.00
47753;BME280;2038;51.728;6.674;2023-04-08T08:42:52;101837.69;;;9.99;100.00
47753;BME280;2038;51.728;6.674;2023-04-08T08:45:21;101841.47;;;9.94;100.00
47753;BME280;2038;51.728;6.674;2023-04-08T08:47:47;101838.88;;;9.73;100.00
47753;BME280;2038;51.728;6.674;2023-04-08T08:50:14;101832.00;;;9.72;100.00
47753;BME280;2038;51.728;6.674;2023-04-08T08:52:50;101840.94;;;9.77;100.00
47753;BME280;2038;51.728;6.674;2023-04-08T08:55:20;101839.53;;;9.81;100.00
47753;BME280;2038;51.728;6.674;2023-04-08T08:57:50;101841.44;;;9.73;100.00
47753;BME280;2038;51.728;6.674;2023-04-08T09:00:16;101842.22;;;9.93;100.00
47753;BME280;2038;51.728;6.674;2023-04-08T09:02:43;101842.91;;;10.10;100.00
47753;BME280;2038;51.728;6.674;2023-04-08T09:05:09;101846.47;;;10.12;100.00
47753;BME280;2038;51.728;6.674;2023-04-08T09:07:37;101844.88;;;10.33;100.00
47753;BME280;2038;51.728;6.674;2023-04-08T09:10:05;101845.31;;;9.99;100.00
47753;BME280;2038;51.728;6.674;2023-04-08T09:12:32;101846.06;;;9.98;100.00
47753;BME280;2038;51.728;6.674;2023-04-08T09:15:06;101852.44;;;10.03;100.00
47753;BME280;2038;51.728;6.674;2023-04-08T09:17:35;101852.06;;;9.98;100.00
47753;BME280;2038;51.728;6.674;2023-04-08T09:20:05;101846.25;;;10.19;100.00
47753;BME280;2038;51.728;6.674;2023-04-08T09:23:03;101857.31;;;10.20;100.00
47753;BME280;2038;51.728;6.674;2023-04-08T09:25:32;101856.56;;;10.21;100.00
47753;BME280;2038;51.728;6.674;2023-04-08T09:27:59;101865.34;;;10.14;100.00
47753;BME280;2038;51.728;6.674;2023-04-08T09:30:27;101861.88;;;10.14;100.00
47753;BME280;2038;51.728;6.674;2023-04-08T09:32:56;101861.00;;;10.13;100.00
47753;BME280;2038;51.728;6.674;2023-04-08T09:35:23;101862.56;;;10.21;100.00
47753;BME280;2038;51.728;6.674;2023-04-08T09:37:50;101859.41;;;10.54;100.00
47753;BME280;2038;51.728;6.674;2023-04-08T09:40:17;101859.00;;;10.60;100.00
47753;BME280;2038;51.728;6.674;2023-04-08T09:42:45;101856.59;;;10.61;100.00
47753;BME280;2038;51.728;6.674;2023-04-08T09:45:17;101853.75;;;10.99;100.00
47753;BME280;2038;51.728;6.674;2023-04-08T09:48:09;101846.03;;;11.09;100.00
47753;BME280;2038;51.728;6.674;2023-04-08T09:50:44;101858.28;;;11.23;100.00
47753;BME280;2038;51.728;6.674;2023-04-08T09:53:29;101857.00;;;11.18;100.00
47753;BME280;2038;51.728;6.674;2023-04-08T09:56:00;101856.25;;;11.19;100.00
47753;BME280;2038;51.728;6.674;2023-04-08T09:58:48;101856.50;;;11.12;99.63
47753;BME280;2038;51.728;6.674;2023-04-08T10:01:49;101856.25;;;11.19;100.00
47753;BME280;2038;51.728;6.674;2023-04-08T10:04:21;101850.91;;;11.06;100.00
47753;BME280;2038;51.728;6.674;2023-04-08T10:07:02;101854.84;;;11.12;99.18
47753;BME280;2038;51.728;6.674;2023-04-08T10:09:32;101860.19;;;11.15;99.29
47753;BME280;2038;51.728;6.674;2023-04-08T10:12:00;101859.19;;;11.13;99.87
47753;BME280;2038;51.728;6.674;2023-04-08T10:14:29;101869.38;;;11.13;98.46
47753;BME280;2038;51.728;6.674;2023-04-08T10:17:24;101867.06;;;11.16;97.83
47753;BME280;2038;51.728;6.674;2023-04-08T10:19:52;101870.94;;;11.01;99.81
47753;BME280;2038;51.728;6.674;2023-04-08T10:28:23;101868.44;;;11.33;99.29
47753;BME280;2038;51.728;6.674;2023-04-08T10:30:52;101869.28;;;11.44;99.44
47753;BME280;2038;51.728;6.674;2023-04-08T10:36:11;101865.34;;;11.37;99.34
47753;BME280;2038;51.728;6.674;2023-04-08T10:38:41;101870.16;;;11.44;98.45
47753;BME280;2038;51.728;6.674;2023-04-08T10:41:10;101870.75;;;11.62;98.09
47753;BME280;2038;51.728;6.674;2023-04-08T10:43:38;101869.66;;;11.80;97.24
47753;BME280;2038;51.728;6.674;2023-04-08T10:46:05;101871.84;;;11.76;97.01
47753;BME280;2038;51.728;6.674;2023-04-08T10:48:31;101863.00;;;11.82;97.24
47753;BME280;2038;51.728;6.674;2023-04-08T10:50:59;101862.94;;;11.92;96.65
47753;BME280;2038;51.728;6.674;2023-04-08T10:53:37;101854.59;;;11.83;97.74
47753;BME280;2038;51.728;6.674;2023-04-08T10:56:11;101854.34;;;12.02;98.12
47753;BME280;2038;51.728;6.674;2023-04-08T10:58:52;101850.03;;;12.12;97.56
47753;BME280;2038;51.728;6.674;2023-04-08T11:01:21;101849.75;;;12.19;97.43
47753;BME280;2038;51.728;6.674;2023-04-08T11:03:48;101852.53;;;12.01;95.79
47753;BME280;2038;51.728;6.674;2023-04-08T11:06:15;101852.84;;;11.94;94.60
47753;BME280;2038;51.728;6.674;2023-04-08T11:08:42;101856.91;;;12.02;95.05
47753;BME280;2038;51.728;6.674;2023-04-08T11:11:13;101853.44;;;12.01;95.02
47753;BME280;2038;51.728;6.674;2023-04-08T11:13:41;101855.94;;;11.90;94.71
47753;BME280;2038;51.728;6.674;2023-04-08T11:16:10;101859.41;;;11.90;94.04
47753;BME280;2038;51.728;6.674;2023-04-08T11:18:39;101855.22;;;11.81;92.83
47753;BME280;2038;51.728;6.674;2023-04-08T11:21:09;101851.38;;;11.86;91.78
47753;BME280;2038;51.728;6.674;2023-04-08T11:23:36;101848.81;;;11.86;92.97
47753;BME280;2038;51.728;6.674;2023-04-08T11:26:03;101849.75;;;11.98;93.51
47753;BME280;2038;51.728;6.674;2023-04-08T11:28:29;101852.69;;;12.02;93.24
47753;BME280;2038;51.728;6.674;2023-04-08T11:30:56;101848.81;;;12.07;93.95
47753;BME280;2038;51.728;6.674;2023-04-08T11:33:25;101852.13;;;12.06;92.07
47753;BME280;2038;51.728;6.674;2023-04-08T11:35:52;101860.69;;;12.07;91.64
47753;BME280;2038;51.728;6.674;2023-04-08T11:38:22;101856.09;;;12.25;92.21
47753;BME280;2038;51.728;6.674;2023-04-08T11:40:56;101846.59;;;12.45;92.84
47753;BME280;2038;51.728;6.674;2023-04-08T11:43:24;101857.88;;;12.26;92.67
47753;BME280;2038;51.728;6.674;2023-04-08T11:45:51;101862.69;;;12.33;93.90
47753;BME280;2038;51.728;6.674;2023-04-08T11:48:17;101854.47;;;12.37;94.73
47753;BME280;2038;51.728;6.674;2023-04-08T11:50:44;101854.84;;;12.53;94.70
47753;BME280;2038;51.728;6.674;2023-04-08T11:53:20;101851.97;;;12.60;95.07
47753;BME280;2038;51.728;6.674;2023-04-08T11:55:50;101850.41;;;12.62;96.07
47753;BME280;2038;51.728;6.674;2023-04-08T11:58:16;101851.56;;;12.77;95.73
47753;BME280;2038;51.728;6.674;2023-04-08T12:00:43;101859.91;;;12.86;95.38
47753;BME280;2038;51.728;6.674;2023-04-08T12:03:10;101863.16;;;12.84;95.40
47753;BME280;2038;51.728;6.674;2023-04-08T12:05:38;101863.03;;;12.82;95.30
47753;BME280;2038;51.728;6.674;2023-04-08T12:08:04;101857.22;;;12.96;95.03
47753;BME280;2038;51.728;6.674;2023-04-08T12:10:31;101852.03;;;13.06;95.03
47753;BME280;2038;51.728;6.674;2023-04-08T12:12:57;101859.75;;;13.18;94.07
47753;BME280;2038;51.728;6.674;2023-04-08T12:15:23;101863.53;;;13.23;94.45
47753;BME280;2038;51.728;6.674;2023-04-08T12:17:50;101854.41;;;13.27;95.89
47753;BME280;2038;51.728;6.674;2023-04-08T12:20:16;101856.25;;;13.41;94.20
47753;BME280;2038;51.728;6.674;2023-04-08T12:22:43;101864.72;;;13.51;93.82
47753;BME280;2038;51.728;6.674;2023-04-08T12:25:09;101860.81;;;13.45;95.55
47753;BME280;2038;51.728;6.674;2023-04-08T12:27:35;101861.34;;;13.52;95.19
47753;BME280;2038;51.728;6.674;2023-04-08T12:30:02;101861.69;;;13.57;94.65
47753;BME280;2038;51.728;6.674;2023-04-08T12:32:29;101858.22;;;13.56;94.98
47753;BME280;2038;51.728;6.674;2023-04-08T12:34:55;101861.78;;;13.70;95.33
47753;BME280;2038;51.728;6.674;2023-04-08T12:37:22;101864.34;;;13.70;95.03
47753;BME280;2038;51.728;6.674;2023-04-08T12:39:48;101856.94;;;13.50;94.23
47753;BME280;2038;51.728;6.674;2023-04-08T12:42:14;101857.50;;;13.34;95.30
47753;BME280;2038;51.728;6.674;2023-04-08T12:44:41;101859.16;;;13.34;95.98
47753;BME280;2038;51.728;6.674;2023-04-08T12:47:07;101860.72;;;13.43;95.81
47753;BME280;2038;51.728;6.674;2023-04-08T12:49:33;101854.81;;;13.44;95.45
47753;BME280;2038;51.728;6.674;2023-04-08T12:52:00;101858.72;;;13.51;94.77
47753;BME280;2038;51.728;6.674;2023-04-08T12:54:26;101854.25;;;13.37;96.35
47753;BME280;2038;51.728;6.674;2023-04-08T12:56:52;101858.84;;;13.29;96.22
47753;BME280;2038;51.728;6.674;2023-04-08T12:59:18;101855.06;;;13.36;96.62
47753;BME280;2038;51.728;6.674;2023-04-08T13:01:45;101850.38;;;13.42;95.88
47753;BME280;2038;51.728;6.674;2023-04-08T13:04:11;101852.38;;;13.46;96.26
47753;BME280;2038;51.728;6.674;2023-04-08T13:06:37;101856.03;;;13.49;95.45
47753;BME280;2038;51.728;6.674;2023-04-08T13:09:03;101853.50;;;13.38;97.31
47753;BME280;2038;51.728;6.674;2023-04-08T13:11:29;101852.50;;;13.47;97.23
47753;BME280;2038;51.728;6.674;2023-04-08T13:13:56;101849.47;;;13.41;96.83
47753;BME280;2038;51.728;6.674;2023-04-08T13:16:22;101857.28;;;13.43;97.29